Catàleg de serveis del Meteocat
Campanya meteocatpedra

Dades de l'estació automàtica Mont-roig del Camp

?
?
Resum diari 23:00 TU
Dades diàries de l'estació meteorològica
Temperatura mitjana 26.5 °C
Temperatura màxima 34.9 °C 13:59 TU
Temperatura mínima 20.0 °C 23:11 TU
Humitat relativa mitjana 49%
Precipitació acumulada 0.0 mm
Ratxa màxima del vent (10 m) 56.9 km/h - 296º 3:34 TU
Pressió atmosfèrica mitjana 1011.1 hPa
Irradiació solar global 29.8 MJ/m2

El tram horari està expressat en Temps Universal (TU). Cal sumar una hora en horari d'hivern i dues en horari d'estiu per passar a l'hora oficial.

Mont-roig del Camp

Metadades estació meteorol´gica
Municipi Mont-roig del Camp
Comarca Baix Camp
Altitud 42 m
Data alta 20.12.2017
Estat actual Operativa
Dades de període
Període
TU
TM
°C
TX
°C
TN
°C
HRM
%
PPT
mm
VVM (10 m)
km/h
DVM (10 m)
graus
VVX (10 m)
km/h
PM
hPa
RS
W/m2
00:00 - 00:30 24.7 25.1 24.4 45 0.0 13.3 287 30.6 1011.0 0
00:30 - 01:00 24.2 24.4 23.9 46 0.0 15.5 280 31.7 1010.7 0
01:00 - 01:30 23.8 24.0 23.6 45 0.0 23.0 286 44.3 1010.5 0
01:30 - 02:00 23.6 23.7 23.4 44 0.0 27.7 294 47.5 1010.3 0
02:00 - 02:30 23.2 23.4 23.1 44 0.0 28.8 289 49.3 1010.1 0
02:30 - 03:00 22.9 23.1 22.8 45 0.0 30.6 288 51.5 1010.1 0
03:00 - 03:30 22.7 22.9 22.5 45 0.0 29.5 284 51.1 1010.1 0
03:30 - 04:00 22.6 22.6 22.5 45 0.0 32.8 282 56.9 1010.0 0
04:00 - 04:30 22.4 22.5 22.3 46 0.0 31.7 279 55.1 1010.0 0
04:30 - 05:00 22.2 22.3 22.1 46 0.0 30.6 281 56.2 1010.0 9
05:00 - 05:30 22.3 22.4 22.2 47 0.0 33.8 282 56.9 1010.0 61
05:30 - 06:00 22.6 22.9 22.4 46 0.0 28.1 281 52.9 1010.1 134
06:00 - 06:30 23.0 23.2 22.8 46 0.0 32.4 278 56.9 1010.4 231
06:30 - 07:00 23.5 23.7 23.3 45 0.0 32.0 280 55.1 1010.6 329
07:00 - 07:30 24.2 24.6 23.8 44 0.0 33.1 284 53.3 1010.5 415
07:30 - 08:00 25.1 25.8 24.7 43 0.0 29.5 287 51.5 1010.5 522
08:00 - 08:30 26.2 26.6 25.6 41 0.0 27.7 287 43.9 1010.7 609
08:30 - 09:00 27.0 27.4 26.4 40 0.0 27.0 291 45.4 1010.7 666
09:00 - 09:30 27.8 28.4 27.3 39 0.0 27.0 291 42.5 1010.8 761
09:30 - 10:00 28.7 29.3 28.3 37 0.0 25.9 291 38.5 1010.8 825
10:00 - 10:30 29.6 30.1 29.2 35 0.0 23.0 292 36.7 1010.8 876
10:30 - 11:00 30.5 31.1 29.8 33 0.0 20.9 288 33.1 1010.6 915
11:00 - 11:30 31.5 32.1 30.9 31 0.0 19.4 281 33.1 1010.4 947
11:30 - 12:00 32.0 32.5 31.5 30 0.0 19.8 290 32.8 1010.2 963
12:00 - 12:30 32.6 33.2 32.1 29 0.0 18.7 289 32.4 1010.0 971
12:30 - 13:00 33.0 33.6 32.3 28 0.0 21.6 281 41.8 1009.7 960
13:00 - 13:30 33.4 33.9 33.1 27 0.0 20.2 291 38.2 1009.6 933
13:30 - 14:00 33.8 34.9 32.8 27 0.0 19.8 293 36.4 1009.4 894
14:00 - 14:30 34.3 34.8 33.8 25 0.0 20.5 291 38.5 1009.3 840
14:30 - 15:00 34.1 34.7 33.9 26 0.0 20.2 295 34.2 1009.3 771
15:00 - 15:30 34.5 34.8 34.0 26 0.0 14.4 299 30.2 1009.2 701
15:30 - 16:00 31.6 34.6 28.9 44 0.0 16.2 170 38.9 1009.3 571
16:00 - 16:30 28.8 29.5 28.0 55 0.0 18.7 167 30.6 1009.7 520
16:30 - 17:00 28.3 28.6 27.8 55 0.0 16.6 169 29.5 1010.0 408
17:00 - 17:30 27.7 28.1 27.3 60 0.0 13.3 122 22.7 1010.6 315
17:30 - 18:00 27.1 27.4 26.8 62 0.0 13.3 107 20.9 1011.3 225
18:00 - 18:30 26.4 26.8 26.0 66 0.0 10.8 86 17.3 1011.8 139
18:30 - 19:00 25.7 25.9 25.4 66 0.0 9.0 88 14.4 1012.2 62
19:00 - 19:30 25.0 25.3 24.5 69 0.0 6.8 87 11.9 1012.6 8
19:30 - 20:00 24.4 24.5 24.2 74 0.0 6.1 81 9.7 1013.1 0
20:00 - 20:30 24.2 24.2 24.2 78 0.0 8.3 80 14.4 1013.8 0
20:30 - 21:00 24.0 24.3 23.2 76 0.0 5.8 37 11.5 1014.3 0
21:00 - 21:30 23.0 23.1 22.9 79 0.0 5.4 353 8.6 1014.8 0
21:30 - 22:00 23.0 23.1 22.9 78 0.0 4.3 351 6.1 1015.0 0
22:00 - 22:30 22.5 23.0 22.1 79 0.0 4.7 343 5.8 1015.1 0
22:30 - 23:00 21.3 22.0 20.4 82 0.0 4.7 328 6.5 1015.2 0
23:00 - 23:30 20.3 20.9 20.0 86 0.0 4.7 298 6.8 1015.4 0

Les dades en taronja només han passat un control de qualitat automàtic. Resta pendent la seva validació definitiva.